Time;durP1;ratioP1;P1;durP2;ratioP2;P2;SDS_P1;SDS_P2;PMS_P1;PMS_P2;Temp;Humidity;BMP_temperature;BMP_pressure;BME280_temperature;BME280_humidity;BME280_pressure;Samples;Min_cycle;Max_cycle;Signal;HPM_P1;HPM_P2
2024/02/12 00:00:23;;;;;;;5.38;4.88;;;10.00;99.90;;;;;;5114041;28;20222;-78
2024/02/12 00:02:50;;;;;;;7.70;6.15;;;10.00;99.90;;;;;;5114860;28;20226;-80
2024/02/12 00:05:18;;;;;;;5.93;5.32;;;9.90;99.90;;;;;;5112494;28;20286;-77
2024/02/12 00:07:45;;;;;;;5.03;4.63;;;9.90;99.90;;;;;;5104889;28;20310;-77
2024/02/12 00:10:15;;;;;;;5.50;5.05;;;9.90;99.90;;;;;;5114233;28;20226;-76
2024/02/12 00:12:43;;;;;;;5.15;4.68;;;9.90;99.90;;;;;;5113828;28;20223;-76
2024/02/12 00:15:12;;;;;;;4.55;4.15;;;10.00;99.90;;;;;;5114332;28;20351;-77
2024/02/12 00:17:40;;;;;;;5.35;4.85;;;10.00;99.90;;;;;;5114059;28;20227;-77
2024/02/12 00:20:10;;;;;;;5.60;5.10;;;10.00;99.90;;;;;;5114477;28;20218;-76
2024/02/12 00:22:39;;;;;;;7.75;6.65;;;10.00;99.90;;;;;;5114126;28;20250;-79
2024/02/12 00:25:07;;;;;;;6.65;6.05;;;10.00;99.90;;;;;;5114745;28;20236;-79
2024/02/12 00:27:34;;;;;;;6.32;5.70;;;10.00;99.90;;;;;;5114769;28;20262;-80
2024/02/12 00:30:02;;;;;;;5.40;4.90;;;10.00;99.90;;;;;;5114331;28;20222;-80
2024/02/12 00:32:31;;;;;;;4.97;4.20;;;10.00;99.90;;;;;;5113821;28;20227;-80
2024/02/12 00:34:58;;;;;;;5.10;4.70;;;10.00;99.90;;;;;;5114027;28;20237;-76
2024/02/12 00:37:26;;;;;;;6.60;5.90;;;9.90;99.90;;;;;;5112534;28;20223;-76
2024/02/12 00:39:58;;;;;;;9.77;7.10;;;9.90;99.90;;;;;;5114002;28;20268;-77
2024/02/12 00:42:25;;;;;;;7.18;6.47;;;9.90;99.90;;;;;;5113689;28;20288;-76
2024/02/12 00:44:56;;;;;;;5.82;5.20;;;9.90;99.90;;;;;;5113945;28;20218;-79
2024/02/12 00:47:25;;;;;;;3.90;3.60;;;9.90;99.90;;;;;;5113695;28;20303;-77
2024/02/12 00:49:55;;;;;;;3.70;3.40;;;9.90;99.90;;;;;;5113701;28;20238;-80
2024/02/12 00:52:23;;;;;;;4.45;3.95;;;9.90;99.90;;;;;;5093145;28;20238;-79
2024/02/12 00:54:52;;;;;;;4.65;4.22;;;9.90;99.90;;;;;;5093156;28;20292;-80
2024/02/12 00:57:20;;;;;;;3.83;3.53;;;9.90;99.90;;;;;;5092999;28;20227;-80
2024/02/12 00:59:48;;;;;;;3.95;3.33;;;9.90;99.90;;;;;;5092533;28;20307;-80
2024/02/12 01:02:17;;;;;;;4.15;3.58;;;9.90;99.90;;;;;;5093215;28;20562;-80
2024/02/12 01:04:44;;;;;;;4.00;3.70;;;9.90;99.90;;;;;;5092472;28;20222;-76
2024/02/12 01:07:17;;;;;;;4.07;3.78;;;9.90;99.90;;;;;;5092658;28;20302;-80
2024/02/12 01:09:44;;;;;;;4.30;3.90;;;9.90;99.90;;;;;;5092935;28;20296;-80
2024/02/12 01:12:11;;;;;;;4.13;3.83;;;9.90;99.90;;;;;;5093044;28;20673;-80
2024/02/12 01:14:38;;;;;;;4.03;3.30;;;9.90;99.90;;;;;;5092342;28;20247;-80
2024/02/12 01:17:05;;;;;;;4.22;3.88;;;9.90;99.90;;;;;;5094121;28;20676;-77
2024/02/12 01:19:36;;;;;;;3.40;3.10;;;9.90;99.90;;;;;;5096676;28;20542;-80
2024/02/12 01:22:06;;;;;;;3.67;3.15;;;9.90;99.90;;;;;;5097209;28;20732;-80
2024/02/12 01:24:34;;;;;;;2.95;2.75;;;9.90;99.90;;;;;;5096668;28;20239;-80
2024/02/12 01:27:01;;;;;;;3.38;3.03;;;9.90;99.90;;;;;;5097200;28;20298;-80
2024/02/12 01:29:29;;;;;;;3.90;3.63;;;9.90;99.90;;;;;;5097026;28;20269;-76
2024/02/12 01:31:56;;;;;;;3.35;3.05;;;9.90;99.90;;;;;;5096740;28;20298;-77
2024/02/12 01:34:23;;;;;;;3.15;2.85;;;9.90;99.90;;;;;;5097307;28;20711;-77
2024/02/12 01:36:52;;;;;;;3.78;3.45;;;9.90;99.90;;;;;;5096466;28;20215;-80
2024/02/12 01:39:19;;;;;;;2.70;2.50;;;9.90;99.90;;;;;;5097018;28;20215;-80
2024/02/12 01:41:48;;;;;;;3.17;2.80;;;9.90;99.90;;;;;;5096390;28;20219;-77
2024/02/12 01:44:18;;;;;;;3.00;2.80;;;9.90;99.90;;;;;;5096616;28;20257;-79
2024/02/12 01:46:48;;;;;;;3.10;2.05;;;10.00;99.90;;;;;;5096415;28;20243;-80
2024/02/12 01:49:19;;;;;;;3.10;2.90;;;10.00;99.90;;;;;;5096527;28;20310;-80
2024/02/12 01:51:50;;;;;;;2.75;2.55;;;9.90;99.90;;;;;;5111493;28;20730;-77
2024/02/12 01:54:19;;;;;;;2.70;2.50;;;10.00;99.90;;;;;;5117036;28;20260;-80
2024/02/12 01:56:49;;;;;;;2.97;2.78;;;10.00;99.90;;;;;;5116446;28;20222;-77
2024/02/12 01:59:17;;;;;;;3.97;3.67;;;9.90;99.90;;;;;;5116992;28;20218;-77
2024/02/12 02:01:45;;;;;;;3.20;3.00;;;9.90;99.90;;;;;;5116352;28;20284;-80
2024/02/12 02:04:13;;;;;;;3.38;3.17;;;9.90;99.90;;;;;;5116877;28;20233;-77
2024/02/12 02:06:40;;;;;;;2.80;2.60;;;10.00;99.90;;;;;;5115887;28;20268;-77
2024/02/12 02:09:08;;;;;;;3.40;3.10;;;10.00;99.90;;;;;;5116822;28;20229;-77
2024/02/12 02:11:35;;;;;;;2.80;2.60;;;10.00;99.90;;;;;;5105427;28;20575;-80
2024/02/12 02:14:03;;;;;;;3.55;3.25;;;10.10;99.90;;;;;;5115973;28;20225;-80
2024/02/12 02:16:36;;;;;;;4.82;3.85;;;10.20;99.90;;;;;;5116549;28;20226;-77
2024/02/12 02:19:03;;;;;;;4.30;3.95;;;10.20;99.90;;;;;;5116294;28;20222;-80
2024/02/12 02:21:29;;;;;;;3.45;3.15;;;10.20;99.90;;;;;;5116207;28;20679;-77
2024/02/12 02:24:01;;;;;;;3.10;2.80;;;10.20;99.90;;;;;;5115705;28;20333;-77
2024/02/12 02:26:28;;;;;;;3.50;3.20;;;10.30;99.90;;;;;;5116524;28;20229;-80
2024/02/12 02:28:56;;;;;;;4.70;3.40;;;10.30;99.90;;;;;;5114862;28;20223;-77
2024/02/12 02:31:23;;;;;;;4.03;3.67;;;10.40;99.90;;;;;;5116239;28;20241;-77
2024/02/12 02:33:51;;;;;;;4.32;3.92;;;10.40;99.90;;;;;;5115576;28;20227;-77
2024/02/12 02:36:18;;;;;;;3.55;3.25;;;10.40;99.90;;;;;;5115147;28;20223;-77
2024/02/12 02:38:45;;;;;;;3.40;3.10;;;10.50;99.90;;;;;;5115418;28;20222;-80
2024/02/12 02:41:14;;;;;;;3.28;3.08;;;10.50;99.90;;;;;;5116287;28;20219;-77
2024/02/12 02:43:41;;;;;;;4.00;3.70;;;10.50;99.90;;;;;;5116191;28;20740;-80
2024/02/12 02:46:08;;;;;;;3.60;3.40;;;10.50;99.90;;;;;;5116348;28;20230;-80
2024/02/12 02:48:35;;;;;;;4.13;3.72;;;10.60;99.90;;;;;;5116509;28;20672;-80
2024/02/12 02:51:02;;;;;;;3.92;3.55;;;10.50;99.90;;;;;;5115825;28;20301;-77
2024/02/12 02:53:34;;;;;;;4.20;3.90;;;10.50;99.90;;;;;;5115903;28;20227;-80
2024/02/12 02:56:01;;;;;;;4.25;3.85;;;10.50;99.90;;;;;;5115367;28;20246;-77
2024/02/12 02:58:29;;;;;;;4.32;4.03;;;10.60;99.90;;;;;;5115810;28;20241;-80
2024/02/12 03:00:56;;;;;;;3.70;3.40;;;10.50;99.90;;;;;;5111499;28;20229;-77
2024/02/12 03:03:24;;;;;;;3.35;3.15;;;10.50;99.90;;;;;;5115321;28;20223;-77
2024/02/12 03:05:51;;;;;;;3.83;3.42;;;10.50;99.90;;;;;;5114890;28;20233;-80
2024/02/12 03:08:20;;;;;;;5.85;4.88;;;10.50;99.90;;;;;;5115571;28;20218;-80
2024/02/12 03:10:49;;;;;;;4.65;4.25;;;10.50;99.90;;;;;;5114791;28;20296;-79
2024/02/12 03:13:16;;;;;;;3.65;3.35;;;10.50;99.90;;;;;;5115530;28;20233;-77
2024/02/12 03:15:45;;;;;;;4.88;4.43;;;10.50;99.90;;;;;;5115490;28;20226;-77
2024/02/12 03:18:20;;;;;;;4.20;3.90;;;10.50;99.90;;;;;;5114917;28;20287;-77
2024/02/12 03:20:47;;;;;;;4.25;3.95;;;10.50;99.90;;;;;;5115289;28;20222;-77
2024/02/12 03:23:14;;;;;;;4.18;3.70;;;10.50;99.90;;;;;;5114948;28;20234;-79
2024/02/12 03:25:41;;;;;;;4.05;3.75;;;10.40;99.90;;;;;;5115544;28;20598;-80
2024/02/12 03:28:11;;;;;;;3.97;3.67;;;10.40;99.90;;;;;;5114801;28;20237;-77
2024/02/12 03:30:38;;;;;;;4.38;3.97;;;10.50;99.90;;;;;;5115115;28;20218;-77
2024/02/12 03:33:07;;;;;;;4.28;3.88;;;10.40;99.90;;;;;;5114528;28;20223;-77
2024/02/12 03:35:34;;;;;;;4.93;4.53;;;10.40;99.90;;;;;;5114881;28;20227;-77
2024/02/12 03:38:01;;;;;;;5.35;4.65;;;10.40;99.90;;;;;;5114277;28;20238;-77
2024/02/12 03:40:28;;;;;;;5.05;4.60;;;10.40;99.90;;;;;;5113946;28;20332;-77
2024/02/12 03:42:55;;;;;;;5.80;5.30;;;10.40;99.90;;;;;;5114156;28;20571;-80
2024/02/12 03:45:23;;;;;;;5.68;5.18;;;10.40;99.90;;;;;;5114964;28;20223;-77
2024/02/12 03:47:49;;;;;;;6.10;5.50;;;10.40;99.90;;;;;;5115165;28;20226;-80
2024/02/12 04:01:24;;;;;;;6.10;5.60;;;10.40;99.90;;;;;;5116122;28;20253;-80
2024/02/12 04:03:52;;;;;;;6.53;5.93;;;10.40;99.90;;;;;;5128432;28;20237;-80
2024/02/12 04:06:22;;;;;;;5.50;5.00;;;10.40;99.90;;;;;;5118529;28;20227;-77
2024/02/12 04:08:51;;;;;;;5.70;5.30;;;10.40;99.90;;;;;;5114714;28;20242;-77
2024/02/12 04:11:23;;;;;;;5.65;5.15;;;10.40;99.90;;;;;;5118750;28;20287;-79
2024/02/12 04:13:54;;;;;;;6.25;5.75;;;10.40;99.90;;;;;;5118399;28;20292;-80
2024/02/12 04:16:22;;;;;;;6.45;5.85;;;10.40;99.90;;;;;;5114991;28;20215;-80
2024/02/12 04:18:49;;;;;;;8.02;7.22;;;10.40;99.90;;;;;;5114951;28;20321;-80
2024/02/12 04:21:20;;;;;;;7.18;6.57;;;10.40;99.90;;;;;;5114186;28;20223;-80
2024/02/12 04:23:49;;;;;;;6.93;6.25;;;10.50;99.90;;;;;;5114505;28;20241;-80
2024/02/12 04:26:17;;;;;;;7.05;6.35;;;10.50;99.90;;;;;;5114663;28;20287;-80
2024/02/12 04:28:44;;;;;;;8.05;7.32;;;10.50;99.90;;;;;;5114609;28;20236;-77
2024/02/12 04:31:12;;;;;;;7.35;6.65;;;10.40;99.90;;;;;;5113005;28;20683;-77
2024/02/12 04:33:40;;;;;;;8.10;7.30;;;10.40;99.90;;;;;;5114045;28;20227;-77
2024/02/12 04:36:08;;;;;;;8.30;7.30;;;10.50;99.90;;;;;;5113438;28;20229;-78
2024/02/12 04:38:36;;;;;;;7.50;6.80;;;10.50;99.90;;;;;;5113876;28;20276;-76
2024/02/12 04:41:05;;;;;;;7.85;7.13;;;10.50;99.90;;;;;;5112778;28;20684;-80
2024/02/12 04:43:33;;;;;;;7.13;6.43;;;10.50;99.90;;;;;;5113988;28;20608;-80
2024/02/12 04:46:03;;;;;;;7.93;7.20;;;10.50;99.90;;;;;;5113731;28;20292;-77
2024/02/12 04:48:31;;;;;;;8.63;7.30;;;10.50;99.90;;;;;;5113366;28;20222;-77
2024/02/12 04:50:58;;;;;;;9.00;8.20;;;10.50;99.90;;;;;;5112983;28;20237;-77
2024/02/12 04:53:25;;;;;;;8.30;7.35;;;10.50;99.90;;;;;;5112639;28;20305;-77
2024/02/12 04:55:52;;;;;;;8.20;7.45;;;10.50;99.90;;;;;;5113837;28;20710;-77
2024/02/12 04:58:22;;;;;;;8.95;7.95;;;10.50;99.90;;;;;;5113218;28;20619;-77
2024/02/12 05:00:49;;;;;;;8.45;7.65;;;10.50;99.90;;;;;;5113534;28;20673;-76
2024/02/12 05:03:16;;;;;;;8.68;7.88;;;10.60;99.90;;;;;;5112611;28;20231;-77
2024/02/12 05:05:43;;;;;;;8.40;7.60;;;10.60;99.90;;;;;;5113705;28;20222;-77
2024/02/12 05:08:10;;;;;;;9.77;8.25;;;10.60;99.90;;;;;;5112842;28;20233;-77
2024/02/12 05:10:39;;;;;;;9.65;7.40;;;10.50;99.90;;;;;;5113868;28;20227;-77
2024/02/12 05:13:06;;;;;;;9.45;7.90;;;10.50;99.90;;;;;;5113249;28;20230;-77
2024/02/12 05:15:34;;;;;;;9.52;8.55;;;10.50;99.90;;;;;;5113069;28;20560;-80
2024/02/12 05:22:32;;;;;;;8.38;6.97;;;10.50;99.90;;;;;;5113002;28;20264;-77
2024/02/12 05:23:41;;;;;;;8.68;7.78;;;10.50;99.90;;;;;;5113527;28;20260;-80
2024/02/12 05:26:09;;;;;;;10.02;8.55;;;10.50;99.90;;;;;;5112689;28;20226;-77
2024/02/12 05:28:36;;;;;;;8.63;7.70;;;10.50;99.90;;;;;;5113403;28;20280;-80
2024/02/12 05:31:04;;;;;;;10.10;7.90;;;10.50;99.90;;;;;;5112385;28;20317;-79
2024/02/12 05:33:32;;;;;;;8.85;7.95;;;10.50;99.90;;;;;;5113370;28;20318;-80
2024/02/12 05:35:59;;;;;;;10.02;9.02;;;10.50;99.90;;;;;;5112740;28;20695;-80
2024/02/12 05:38:26;;;;;;;10.20;9.15;;;10.60;99.90;;;;;;5113449;28;20234;-80
2024/02/12 05:40:53;;;;;;;9.32;8.43;;;10.60;99.90;;;;;;5112813;28;20305;-80
2024/02/12 05:43:20;;;;;;;9.52;8.57;;;10.60;99.90;;;;;;5113028;28;20252;-80
2024/02/12 05:45:47;;;;;;;12.05;10.23;;;10.60;99.90;;;;;;5113481;28;20218;-80
2024/02/12 05:48:17;;;;;;;11.68;10.48;;;10.60;99.90;;;;;;5112816;28;20655;-77
2024/02/12 05:50:44;;;;;;;9.95;8.93;;;10.60;99.90;;;;;;5113091;28;20333;-77
2024/02/12 05:53:11;;;;;;;12.02;10.45;;;10.60;99.90;;;;;;5112830;28;20592;-77
2024/02/12 05:55:39;;;;;;;13.38;10.10;;;10.60;99.90;;;;;;5104185;28;20695;-80
2024/02/12 05:58:09;;;;;;;12.73;10.77;;;10.60;99.90;;;;;;5113084;28;20230;-77
2024/02/12 06:00:37;;;;;;;11.95;10.65;;;10.60;99.90;;;;;;5113043;28;20301;-77
2024/02/12 06:03:04;;;;;;;12.93;11.18;;;10.60;99.90;;;;;;5112354;28;20625;-80
2024/02/12 06:05:32;;;;;;;11.55;10.35;;;10.60;99.90;;;;;;5116532;28;20310;-77
2024/02/12 06:08:00;;;;;;;16.00;12.55;;;10.60;99.90;;;;;;5116392;28;20214;-77
2024/02/12 06:10:27;;;;;;;25.58;19.63;;;10.70;99.90;;;;;;5117917;28;20524;-79
2024/02/12 06:12:54;;;;;;;21.85;18.05;;;10.70;99.90;;;;;;5118063;28;20230;-77
2024/02/12 06:15:21;;;;;;;20.30;14.77;;;10.70;99.90;;;;;;5116945;28;20294;-77
2024/02/12 06:17:48;;;;;;;19.67;15.85;;;10.70;99.90;;;;;;5116699;28;20246;-80
2024/02/12 06:20:15;;;;;;;16.70;12.75;;;10.70;99.90;;;;;;5116507;28;20222;-79
2024/02/12 06:22:43;;;;;;;15.98;14.32;;;10.70;99.90;;;;;;5117515;28;20222;-80
2024/02/12 06:25:14;;;;;;;17.30;14.25;;;10.70;99.90;;;;;;5116314;28;20520;-80
2024/02/12 06:27:41;;;;;;;15.40;11.32;;;10.80;99.90;;;;;;5117135;28;20301;-80
2024/02/12 06:30:10;;;;;;;15.45;13.13;;;10.80;99.90;;;;;;5116438;28;20233;-80
2024/02/12 06:32:37;;;;;;;13.20;11.80;;;10.80;99.90;;;;;;5116492;28;20227;-80
2024/02/12 06:35:06;;;;;;;13.30;10.73;;;10.80;99.90;;;;;;5116158;28;20223;-80
2024/02/12 06:37:38;;;;;;;16.42;12.48;;;10.90;99.90;;;;;;5117101;28;20561;-80
2024/02/12 06:40:09;;;;;;;15.88;10.80;;;10.90;99.90;;;;;;5116551;28;20218;-80
2024/02/12 06:42:36;;;;;;;17.48;13.18;;;10.90;99.90;;;;;;5116500;28;20226;-80
2024/02/12 06:45:04;;;;;;;20.63;16.73;;;10.90;99.90;;;;;;5115870;28;20229;-79
2024/02/12 06:47:34;;;;;;;21.40;17.25;;;10.90;99.90;;;;;;5116590;28;20218;-80
2024/02/12 06:50:01;;;;;;;23.25;18.70;;;11.00;99.90;;;;;;5115433;28;20226;-80
2024/02/12 06:52:28;;;;;;;23.73;15.82;;;11.00;99.90;;;;;;5116453;28;20261;-80
2024/02/12 06:54:56;;;;;;;16.05;11.90;;;11.00;99.90;;;;;;5117692;28;20238;-80
2024/02/12 06:57:25;;;;;;;15.73;11.70;;;11.00;99.90;;;;;;5116768;28;20215;-78
2024/02/12 06:59:55;;;;;;;14.50;11.30;;;11.10;99.90;;;;;;5116881;28;20227;-80
2024/02/12 07:02:22;;;;;;;14.32;10.85;;;11.10;99.90;;;;;;5122149;28;20229;-80
2024/02/12 07:04:49;;;;;;;12.82;10.32;;;11.10;99.90;;;;;;5126609;28;20222;-80
2024/02/12 07:07:16;;;;;;;14.63;9.82;;;11.10;99.90;;;;;;5122953;28;20226;-79
2024/02/12 07:09:43;;;;;;;13.13;10.13;;;11.10;99.90;;;;;;5122191;28;20295;-80
2024/02/12 07:12:10;;;;;;;13.63;10.27;;;11.00;99.90;;;;;;5119745;28;20257;-79
2024/02/12 07:14:38;;;;;;;13.02;9.85;;;11.00;99.90;;;;;;5118981;28;20222;-79
2024/02/12 07:17:06;;;;;;;14.27;9.25;;;11.00;99.90;;;;;;5117700;28;20695;-79
2024/02/12 07:19:35;;;;;;;13.25;9.20;;;11.00;99.90;;;;;;5118329;28;20234;-80
2024/02/12 07:22:02;;;;;;;12.52;8.85;;;11.00;99.90;;;;;;5111665;28;20268;-77
2024/02/12 07:24:30;;;;;;;11.93;9.52;;;11.00;99.90;;;;;;5115415;28;20275;-75
2024/02/12 07:26:57;;;;;;;14.80;9.05;;;11.00;99.90;;;;;;5113438;28;20214;-76
2024/02/12 07:29:24;;;;;;;13.40;9.35;;;11.00;99.90;;;;;;5114734;28;20241;-75
2024/02/12 07:31:52;;;;;;;12.38;9.43;;;11.00;99.90;;;;;;5114563;28;20223;-77
2024/02/12 07:34:19;;;;;;;15.05;9.57;;;11.00;99.90;;;;;;5114535;28;20226;-76
2024/02/12 07:36:46;;;;;;;11.38;8.93;;;11.00;99.90;;;;;;5115092;28;20230;-77
2024/02/12 07:39:16;;;;;;;16.35;10.55;;;11.00;99.90;;;;;;5114467;28;20685;-78
2024/02/12 07:41:44;;;;;;;12.25;8.90;;;11.00;99.90;;;;;;5115164;28;20233;-75
2024/02/12 07:44:11;;;;;;;12.50;9.48;;;11.00;99.90;;;;;;5115259;28;20284;-76
2024/02/12 07:46:39;;;;;;;17.13;13.40;;;11.00;99.90;;;;;;5117315;28;20233;-79
2024/02/12 07:49:12;;;;;;;18.88;11.00;;;11.10;99.90;;;;;;5117246;28;20227;-79
2024/02/12 07:51:40;;;;;;;14.00;10.00;;;11.10;99.90;;;;;;5118635;28;20249;-79
2024/02/12 07:54:07;;;;;;;13.13;9.45;;;11.10;99.90;;;;;;5120797;28;20223;-79
2024/02/12 07:56:34;;;;;;;10.98;9.27;;;11.10;99.90;;;;;;5118504;28;20256;-79
2024/02/12 07:59:01;;;;;;;12.80;10.18;;;11.00;99.90;;;;;;5116807;28;20226;-79
2024/02/12 08:01:29;;;;;;;13.52;8.38;;;11.10;99.90;;;;;;5116572;28;20241;-79
2024/02/12 08:03:56;;;;;;;9.90;7.90;;;11.10;99.90;;;;;;5115925;28;20309;-80
2024/02/12 08:06:27;;;;;;;10.40;8.85;;;11.20;99.90;;;;;;5115764;28;20218;-79
2024/02/12 08:08:54;;;;;;;12.93;9.45;;;11.20;99.90;;;;;;5115942;28;20238;-80
2024/02/12 08:11:23;;;;;;;10.18;8.45;;;11.20;99.90;;;;;;5115473;28;20275;-79
2024/02/12 08:13:51;;;;;;;10.88;8.02;;;11.20;99.90;;;;;;5117893;28;20223;-80
2024/02/12 08:16:20;;;;;;;15.57;9.57;;;11.20;99.90;;;;;;5115803;28;20288;-77
2024/02/12 08:18:46;;;;;;;14.90;9.85;;;11.10;99.90;;;;;;5114416;28;20568;-76
2024/02/12 08:21:15;;;;;;;9.45;8.23;;;11.20;99.90;;;;;;5114436;28;20540;-76
2024/02/12 08:23:44;;;;;;;12.85;9.55;;;11.10;99.90;;;;;;5113732;28;20926;-76
2024/02/12 08:26:11;;;;;;;11.98;8.70;;;11.20;99.90;;;;;;5114708;28;20560;-79
2024/02/12 08:28:41;;;;;;;15.27;9.02;;;11.20;99.90;;;;;;5115683;28;20219;-79
2024/02/12 08:31:08;;;;;;;17.20;9.25;;;11.10;99.90;;;;;;5114867;28;20226;-79
2024/02/12 08:33:36;;;;;;;12.00;9.88;;;11.20;99.90;;;;;;5114645;28;20218;-79
2024/02/12 08:36:05;;;;;;;12.40;9.93;;;11.20;99.90;;;;;;5113786;28;20246;-79
2024/02/12 08:38:32;;;;;;;12.95;9.63;;;11.20;99.90;;;;;;5115069;28;20219;-79
2024/02/12 08:41:03;;;;;;;19.67;11.75;;;11.20;99.90;;;;;;5113965;28;20330;-79
2024/02/12 08:43:30;;;;;;;15.82;10.90;;;11.20;99.90;;;;;;5114959;28;20233;-79
2024/02/12 08:45:59;;;;;;;13.77;10.20;;;11.20;99.90;;;;;;5113562;28;20223;-79
2024/02/12 08:48:27;;;;;;;11.02;8.75;;;11.20;99.90;;;;;;5103377;28;20305;-79
2024/02/12 08:50:54;;;;;;;12.45;8.85;;;11.20;99.90;;;;;;5112756;28;20683;-79
2024/02/12 08:53:22;;;;;;;14.48;10.98;;;11.20;99.90;;;;;;5115657;28;20224;-79
2024/02/12 08:55:49;;;;;;;12.63;8.77;;;11.20;99.90;;;;;;5114625;28;20284;-76
2024/02/12 08:58:18;;;;;;;11.15;7.68;;;11.30;99.90;;;;;;5113573;28;20240;-77
2024/02/12 09:00:45;;;;;;;13.90;9.20;;;11.30;99.90;;;;;;5114532;28;20668;-76
2024/02/12 09:03:13;;;;;;;9.18;7.40;;;11.30;99.90;;;;;;5113785;28;20234;-77
2024/02/12 09:05:41;;;;;;;13.70;8.20;;;11.30;99.90;;;;;;5115985;28;20222;-76
2024/02/12 09:08:08;;;;;;;11.75;8.98;;;11.30;99.90;;;;;;5113845;28;20276;-77
2024/02/12 09:10:35;;;;;;;10.40;8.52;;;11.30;99.90;;;;;;5113744;28;20248;-76
2024/02/12 09:13:05;;;;;;;9.77;7.65;;;11.30;99.90;;;;;;5114109;28;20227;-79
2024/02/12 09:15:33;;;;;;;11.07;8.52;;;11.30;99.90;;;;;;5114543;28;20218;-79
2024/02/12 09:18:00;;;;;;;10.57;8.27;;;11.30;99.90;;;;;;5113528;28;20276;-79
2024/02/12 09:20:27;;;;;;;9.00;7.28;;;11.20;99.90;;;;;;5114010;28;20671;-80
2024/02/12 09:22:55;;;;;;;10.75;8.57;;;11.20;99.90;;;;;;5113828;28;20230;-79
2024/02/12 09:25:22;;;;;;;8.45;7.63;;;11.30;99.90;;;;;;5112775;28;20226;-79
2024/02/12 09:27:49;;;;;;;12.02;7.70;;;11.30;99.90;;;;;;5113824;28;20230;-80
2024/02/12 09:30:17;;;;;;;10.80;8.13;;;11.30;99.90;;;;;;5113115;28;20309;-79
2024/02/12 09:32:46;;;;;;;8.95;7.45;;;11.30;99.90;;;;;;5113536;28;20219;-79
2024/02/12 09:35:15;;;;;;;7.82;6.50;;;11.30;99.90;;;;;;5113066;28;20249;-80
2024/02/12 09:37:42;;;;;;;11.27;7.25;;;11.30;99.90;;;;;;5113852;28;20284;-80
2024/02/12 09:40:11;;;;;;;8.30;7.32;;;11.20;99.90;;;;;;5115682;28;20241;-80
2024/02/12 09:42:41;;;;;;;7.70;6.53;;;11.30;99.90;;;;;;5118241;28;20223;-79
2024/02/12 09:45:11;;;;;;;10.07;7.80;;;11.30;99.90;;;;;;5107792;28;20250;-79
2024/02/12 09:47:38;;;;;;;9.48;7.13;;;11.30;99.90;;;;;;5117374;28;20302;-80
2024/02/12 09:50:09;;;;;;;9.95;7.60;;;11.20;99.90;;;;;;5106901;28;20564;-77
2024/02/12 09:52:36;;;;;;;9.13;6.60;;;11.20;99.90;;;;;;5117183;28;20231;-77
2024/02/12 09:55:04;;;;;;;8.10;6.70;;;11.20;99.90;;;;;;5116359;28;20219;-78
2024/02/12 09:57:32;;;;;;;11.45;8.30;;;11.20;99.90;;;;;;5116894;28;20706;-77
2024/02/12 09:59:59;;;;;;;8.20;7.25;;;11.20;99.90;;;;;;5117082;28;20261;-77
2024/02/12 10:02:26;;;;;;;9.40;8.10;;;11.30;99.90;;;;;;5116460;28;20720;-77
2024/02/12 10:04:54;;;;;;;9.85;8.85;;;11.30;99.90;;;;;;5116635;28;20230;-77
2024/02/12 10:07:22;;;;;;;11.38;10.20;;;11.30;99.90;;;;;;5115902;28;20226;-77
2024/02/12 10:09:49;;;;;;;9.30;8.35;;;11.30;99.90;;;;;;5116691;28;20593;-77
2024/02/12 10:12:17;;;;;;;9.13;7.72;;;11.30;99.90;;;;;;5115151;28;20570;-77
2024/02/12 10:14:45;;;;;;;11.30;9.43;;;11.40;99.90;;;;;;5116828;28;20296;-77
2024/02/12 10:17:16;;;;;;;9.75;8.40;;;11.40;99.90;;;;;;5115486;28;20303;-77
2024/02/12 10:19:43;;;;;;;8.50;6.80;;;11.40;99.90;;;;;;5116518;28;20288;-76
2024/02/12 10:22:12;;;;;;;7.95;7.13;;;11.50;99.90;;;;;;5116346;28;20222;-77
2024/02/12 10:24:41;;;;;;;12.32;9.13;;;11.50;99.90;;;;;;5116449;28;20218;-75
2024/02/12 10:27:09;;;;;;;17.30;12.70;;;11.50;99.90;;;;;;5115779;28;20241;-77
2024/02/12 10:29:37;;;;;;;10.98;9.88;;;11.60;99.90;;;;;;5116410;28;20669;-77
2024/02/12 10:32:07;;;;;;;8.38;7.35;;;11.70;99.90;;;;;;5116034;28;20222;-77
2024/02/12 10:34:38;;;;;;;8.80;8.00;;;11.70;99.90;;;;;;5111861;28;20219;-77
2024/02/12 10:37:06;;;;;;;7.57;6.20;;;11.70;99.90;;;;;;5116370;28;20233;-76
2024/02/12 10:39:33;;;;;;;10.68;9.25;;;11.80;99.90;;;;;;5115694;28;20423;-77
2024/02/12 10:42:05;;;;;;;8.30;7.30;;;11.80;99.90;;;;;;5116019;28;20227;-76
2024/02/12 10:44:34;;;;;;;8.10;6.82;;;11.70;99.90;;;;;;5115808;28;20214;-75
2024/02/12 10:54:48;;;;;;;;;;;;;;;;;;;;;
2024/02/12 11:11:00;;;;;;;7.22;6.25;;;11.70;99.90;;;;;;5026967;28;20221;-76
2024/02/12 11:13:35;;;;;;;10.02;6.55;;;11.60;99.90;;;;;;5033400;28;20280;-76
2024/02/12 11:16:03;;;;;;;9.43;6.80;;;11.60;99.90;;;;;;5095934;28;20214;-76
2024/02/12 11:18:35;;;;;;;8.27;6.03;;;11.60;99.90;;;;;;5115538;28;20275;-75
2024/02/12 11:21:03;;;;;;;7.35;6.25;;;11.70;99.90;;;;;;5114679;28;20339;-75
2024/02/12 11:23:30;;;;;;;7.00;6.32;;;11.60;99.90;;;;;;5115443;28;20242;-75
2024/02/12 11:26:00;;;;;;;8.90;5.70;;;11.70;99.90;;;;;;5115025;28;20317;-75
2024/02/12 11:28:28;;;;;;;7.90;7.10;;;11.70;99.90;;;;;;5115990;28;20248;-75
2024/02/12 11:30:56;;;;;;;13.07;8.70;;;11.70;99.90;;;;;;5115098;28;20227;-76
2024/02/12 11:33:25;;;;;;;8.57;7.57;;;11.70;99.90;;;;;;5125476;27;20217;-75
2024/02/12 11:36:02;;;;;;;8.95;7.32;;;11.80;99.90;;;;;;5132708;27;20249;-75
2024/02/12 11:38:30;;;;;;;7.50;5.97;;;11.80;99.90;;;;;;5135283;27;20349;-75
2024/02/12 11:41:00;;;;;;;7.97;6.30;;;11.80;99.90;;;;;;5131614;27;20222;-75
2024/02/12 11:43:34;;;;;;;8.35;6.82;;;11.80;99.90;;;;;;5135264;27;20571;-75
2024/02/12 11:46:02;;;;;;;13.02;9.35;;;11.80;99.90;;;;;;5133839;27;20222;-75
2024/02/12 11:48:30;;;;;;;8.35;6.32;;;11.80;99.90;;;;;;5134928;27;20214;-75
2024/02/12 11:50:57;;;;;;;8.85;6.30;;;11.80;99.90;;;;;;5138574;27;20233;-75
2024/02/12 11:53:25;;;;;;;8.15;7.03;;;11.80;99.90;;;;;;5155925;27;20221;-77
2024/02/12 11:55:52;;;;;;;8.60;6.20;;;11.80;99.90;;;;;;5155328;27;20239;-75
2024/02/12 11:58:21;;;;;;;8.90;7.80;;;11.80;99.90;;;;;;5156039;27;20217;-76
2024/02/12 12:00:52;;;;;;;10.00;7.90;;;11.80;99.90;;;;;;5154653;27;20233;-76
2024/02/12 12:03:20;;;;;;;10.23;8.07;;;11.80;99.90;;;;;;5154961;27;20228;-76
2024/02/12 12:05:49;;;;;;;13.30;8.48;;;11.70;99.90;;;;;;5154839;27;20221;-76
2024/02/12 12:08:16;;;;;;;8.45;6.47;;;11.80;99.90;;;;;;5155409;27;20217;-76
2024/02/12 12:10:43;;;;;;;13.45;8.57;;;11.80;99.90;;;;;;5155150;27;20221;-76
2024/02/12 12:13:11;;;;;;;9.95;8.32;;;11.90;99.90;;;;;;5155473;27;20666;-76
2024/02/12 12:15:39;;;;;;;12.07;9.25;;;11.90;99.90;;;;;;5156768;27;20244;-76
2024/02/12 12:18:06;;;;;;;14.43;10.10;;;11.90;99.90;;;;;;5155645;27;20229;-76
2024/02/12 12:20:35;;;;;;;12.50;10.18;;;11.90;99.90;;;;;;5155709;27;20309;-79
2024/02/12 12:23:09;;;;;;;11.63;9.13;;;11.90;99.90;;;;;;5156480;27;20225;-78
2024/02/12 12:25:36;;;;;;;9.90;7.53;;;11.90;99.90;;;;;;5158684;27;20260;-78
2024/02/12 12:28:05;;;;;;;10.00;8.00;;;11.90;99.90;;;;;;5158699;27;20225;-79
2024/02/12 12:30:32;;;;;;;10.90;8.63;;;11.90;99.90;;;;;;5158476;27;20221;-78
2024/02/12 12:33:01;;;;;;;10.75;8.13;;;11.90;99.90;;;;;;5157158;27;20236;-79
2024/02/12 12:35:28;;;;;;;8.27;6.93;;;11.90;99.90;;;;;;5158466;27;20225;-80
2024/02/12 12:38:00;;;;;;;10.13;7.03;;;11.90;99.90;;;;;;5156644;27;20228;-80
2024/02/12 12:40:27;;;;;;;10.60;7.95;;;11.90;99.90;;;;;;5157443;27;20256;-80
2024/02/12 12:42:57;;;;;;;9.95;7.88;;;12.00;99.90;;;;;;5155120;27;20233;-77
2024/02/12 12:45:24;;;;;;;8.32;7.47;;;12.00;99.90;;;;;;5155092;27;20217;-77
2024/02/12 12:47:52;;;;;;;8.65;7.75;;;11.90;99.90;;;;;;5154855;27;20224;-80
2024/02/12 12:50:21;;;;;;;12.07;6.97;;;11.90;99.90;;;;;;5157249;27;20232;-80
2024/02/12 12:52:48;;;;;;;10.05;7.28;;;11.90;99.90;;;;;;5156298;27;20229;-77
2024/02/12 12:55:17;;;;;;;8.80;7.30;;;11.90;99.90;;;;;;5154820;27;20213;-77
2024/02/12 12:57:44;;;;;;;11.98;8.13;;;11.90;99.90;;;;;;5154798;27;20233;-77
2024/02/12 13:00:18;;;;;;;7.32;6.43;;;11.90;99.90;;;;;;5156195;27;20233;-77
2024/02/12 13:02:52;;;;;;;10.27;6.00;;;11.90;99.90;;;;;;5154154;27;20256;-76
2024/02/12 13:05:22;;;;;;;8.55;6.75;;;11.90;99.90;;;;;;5158349;27;20212;-80
2024/02/12 13:07:50;;;;;;;6.55;5.30;;;11.90;99.90;;;;;;5158028;27;20221;-80
2024/02/12 13:10:17;;;;;;;7.40;6.70;;;11.90;99.90;;;;;;5156389;27;20225;-80
2024/02/12 13:12:45;;;;;;;6.70;5.78;;;11.90;99.90;;;;;;5159575;27;20297;-80
2024/02/12 13:15:13;;;;;;;8.38;6.57;;;11.90;99.90;;;;;;5163587;27;20221;-80
2024/02/12 13:17:43;;;;;;;8.90;6.28;;;11.90;99.90;;;;;;5162959;27;20239;-80
2024/02/12 13:20:21;;;;;;;8.00;5.85;;;11.90;99.90;;;;;;5163935;27;20221;-80
2024/02/12 13:22:53;;;;;;;8.32;6.95;;;11.90;99.90;;;;;;5163848;27;20225;-79